Crystal Symphony — C6MY5 — position and weather

sailwx.info

Track history (hours):
 
Tides and Currents Weather Stations Pressure Air Temp Water Temp Dewpoint Dewpoint Depression Visibility Wind Speed Wind Dir Waves Ship Positions

Crystal Symphony

Operator: Crystal Cruises

Last reported at 2017-Jul-24 08:29 UTC. Time now 2017-Jul-24 08:29 UTC.
Position N 69°41' E 018°60'.

Length 238 m; draft 7.7 m.

Type: Ship. MMSI: 309168000.

Date/timePositionNaut miles runAvg speedWind from/ knotsBaromVisibWave heightAir tempDewpointWater temp
2017-Jul-24 08:29N 69°41' E 018°60'0 0.0
2017-Jul-24 07:59N 69°41' E 018°60'0 0.0
2017-Jul-24 07:29N 69°41' E 018°60'0 0.0
2017-Jul-24 06:59N 69°41' E 018°60'0 0.0
2017-Jul-24 06:25N 69°41' E 018°60'0 0.0
2017-Jul-24 05:58N 69°41' E 018°60'0 0.2
2017-Jul-24 05:29N 69°41' E 018°60'1 3.0
2017-Jul-24 05:00N 69°42' E 019°03'3 6.8
2017-Jul-24 04:30N 69°45' E 019°04'5 9.3
2017-Jul-24 04:00N 69°50' E 018°60'611.5
2017-Jul-24 03:27N 69°54' E 018°46'4 9.2
2017-Jul-24 03:00N 69°50' E 018°38'815.5
2017-Jul-24 02:30N 69°48' E 018°18'713.5
2017-Jul-24 02:00N 69°45' E 018°00'612.0
2017-Jul-24 01:30N 69°43' E 017°43'713.6
2017-Jul-24 01:00N 69°41' E 017°25'714.4
2017-Jul-24 00:30N 69°38' E 017°06'917.2
2017-Jul-24 00:00N 69°34' E 016°44'917.1
2017-Jul-23 23:29N 69°31' E 016°21'816.7
2017-Jul-23 23:00N 69°27' E 015°60'815.7
2017-Jul-23 22:30N 69°24' E 015°40'815.9
2017-Jul-23 22:00N 69°20' E 015°19'815.9
2017-Jul-23 21:30N 69°17' E 014°60'815.7
2017-Jul-23 21:00N 69°13' E 014°39'815.9
2017-Jul-23 20:30N 69°10' E 014°19'816.2
2017-Jul-23 20:00N 69°04' E 014°04'815.6
2017-Jul-23 19:30N 68°58' E 013°51'816.2
2017-Jul-23 18:59N 68°51' E 013°37'816.5
2017-Jul-23 18:30N 68°44' E 013°24'917.2
2017-Jul-23 18:00N 68°37' E 013°10'917.2
2017-Jul-23 17:29N 68°30' E 012°56'817.1
2017-Jul-23 17:00N 68°24' E 012°43'816.4
2017-Jul-23 16:30N 68°17' E 012°30'713.9
2017-Jul-23 16:00N 68°11' E 012°19'27413.8
2017-Jul-22 20:12N 63°58' E 008°04'314.6
2017-Jul-22 20:00N 63°55' E 008°01'714.2
2017-Jul-22 19:30N 63°49' E 007°54'713.9
2017-Jul-22 19:00N 63°43' E 007°46'714.1
2017-Jul-22 18:30N 63°37' E 007°39'917.9
2017-Jul-22 18:00N 63°29' E 007°29'917.6
2017-Jul-22 17:30N 63°20' E 007°28'917.6
2017-Jul-22 17:00N 63°14' E 007°42'5 9.1
2017-Jul-22 16:30N 63°09' E 007°43'3 5.8
2017-Jul-22 16:01N 63°07' E 007°44'0 0.7
2017-Jul-22 15:30N 63°06' E 007°44'0 0.0
2017-Jul-22 15:00N 63°06' E 007°44'0 0.0
2017-Jul-22 13:59N 63°06' E 007°44'0 0.0
2017-Jul-22 13:29N 63°06' E 007°44'0 0.0
2017-Jul-22 12:59N 63°06' E 007°44'0 0.0
2017-Jul-22 12:29N 63°06' E 007°44'0 0.0
2017-Jul-22 11:58N 63°06' E 007°44'0 0.0
2017-Jul-22 11:28N 63°06' E 007°44'0 0.0
2017-Jul-22 10:58N 63°06' E 007°44'0 0.0
2017-Jul-22 10:28N 63°06' E 007°44'0 0.0
2017-Jul-22 10:00N 63°06' E 007°44'0 0.0
2017-Jul-22 09:30N 63°06' E 007°44'0 0.0
2017-Jul-22 09:00N 63°06' E 007°44'0 0.0
2017-Jul-22 08:30N 63°06' E 007°44'0 0.0
2017-Jul-22 08:00N 63°06' E 007°44'0 0.0
2017-Jul-22 07:29N 63°06' E 007°44'0 0.0
2017-Jul-22 06:59N 63°06' E 007°44'0 0.0
2017-Jul-22 06:29N 63°06' E 007°44'0 0.0
2017-Jul-22 05:59N 63°06' E 007°44'0 0.0
2017-Jul-22 05:29N 63°06' E 007°44'0 0.0
2017-Jul-22 04:58N 63°06' E 007°44'0 0.6
2017-Jul-22 04:31N 63°07' E 007°44'2 4.7
2017-Jul-22 04:00N 63°07' E 007°39'917.1
2017-Jul-22 03:30N 63°04' E 007°22'611.0
2017-Jul-22 03:00N 63°03' E 007°10'4 8.5
2017-Jul-22 02:30N 63°01' E 007°02'5 9.3
2017-Jul-22 02:00N 62°59' E 006°53'5 9.5
2017-Jul-22 01:30N 62°59' E 006°42'5 9.6
2017-Jul-22 00:59N 62°58' E 006°31'5 9.7
2017-Jul-22 00:30N 62°57' E 006°22'5 9.6
2017-Jul-22 00:00N 62°55' E 006°12'5 9.3
2017-Jul-21 23:30N 62°52' E 006°04'5 9.2
2017-Jul-21 23:00N 62°48' E 005°57'5 9.1
2017-Jul-21 22:30N 62°45' E 005°51'4 9.1
2017-Jul-21 22:00N 62°41' E 005°45'4 8.7
2017-Jul-21 21:30N 62°37' E 005°40'5 9.3
2017-Jul-21 21:00N 62°33' E 005°41'5 9.3
2017-Jul-21 20:30N 62°29' E 005°47'5 9.8
2017-Jul-21 20:00N 62°27' E 005°56'5 9.4
2017-Jul-21 19:30N 62°24' E 006°04'714.0
2017-Jul-21 19:00N 62°24' E 006°19'917.2
2017-Jul-21 18:30N 62°27' E 006°37'816.0
2017-Jul-21 18:00N 62°26' E 006°54'815.9
2017-Jul-21 17:30N 62°18' E 006°59'815.9
2017-Jul-21 17:00N 62°10' E 007°02'510.0
2017-Jul-21 16:30N 62°06' E 007°02'5 9.1
2017-Jul-21 16:00N 62°06' E 007°12'0 0.3
2017-Jul-21 15:28N 62°06' E 007°12'0 0.0
2017-Jul-21 14:58N 62°06' E 007°12'0 0.0
2017-Jul-21 14:28N 62°06' E 007°12'0 0.0
2017-Jul-21 11:50N 62°06' E 007°12'0 0.0
2017-Jul-21 11:30N 62°06' E 007°12'0 0.0
2017-Jul-21 11:00N 62°06' E 007°12'0 0.0
2017-Jul-21 10:29N 62°06' E 007°12'0 0.0
2017-Jul-21 09:59N 62°06' E 007°12'0 0.0
2017-Jul-21 09:29N 62°06' E 007°12'0 0.0
2017-Jul-21 08:59N 62°06' E 007°12'0 0.0
2017-Jul-21 08:29N 62°06' E 007°12'0 0.2
2017-Jul-21 08:00N 62°06' E 007°12'3 6.4
2017-Jul-21 07:30N 62°06' E 007°05'4 1.8
2017-Jul-21 05:12N 62°08' E 006°57'419.1
2017-Jul-21 05:00N 62°11' E 007°02'917.9
2017-Jul-21 04:30N 62°20' E 006°57'816.2
2017-Jul-21 04:00N 62°27' E 006°49'817.0
2017-Jul-21 03:30N 62°25' E 006°31'918.3
2017-Jul-21 03:00N 62°23' E 006°12'917.6
2017-Jul-21 02:30N 62°27' E 005°55'816.7
2017-Jul-21 02:00N 62°31' E 005°39'816.3
2017-Jul-21 01:30N 62°29' E 005°22'917.2
2017-Jul-21 01:00N 62°24' E 005°07'917.2
2017-Jul-21 00:30N 62°17' E 004°56'917.2
2017-Jul-21 00:00N 62°10' E 004°46'917.2
2017-Jul-20 23:30N 62°03' E 004°36'817.1
2017-Jul-20 23:00N 61°55' E 004°30'917.0
2017-Jul-20 22:30N 61°47' E 004°25'1017.1
2017-Jul-20 21:54N 61°36' E 004°21'717.3
2017-Jul-20 21:30N 61°30' E 004°22'816.8
2017-Jul-20 21:00N 61°21' E 004°23'815.5
2017-Jul-20 20:30N 61°15' E 004°32'917.1
2017-Jul-20 20:00N 61°14' E 004°50'814.4
2017-Jul-20 19:28N 61°10' E 005°03'714.1
2017-Jul-20 18:59N 61°06' E 005°14'816.2
2017-Jul-20 18:30N 61°05' E 005°30'918.9
2017-Jul-20 18:00N 61°08' E 005°48'1019.6
2017-Jul-20 17:30N 61°08' E 006°08'1019.7
2017-Jul-20 17:00N 61°06' E 006°28'816.9
2017-Jul-20 16:30N 61°10' E 006°44'22 3.1
2017-Jul-20 09:24N 60°52' E 007°08'0 0.1
2017-Jul-20 08:59N 60°52' E 007°08'0 0.0
2017-Jul-20 08:28N 60°52' E 007°08'0 0.0
2017-Jul-20 07:58N 60°52' E 007°08'0 0.0
2017-Jul-20 07:28N 60°52' E 007°08'0 0.0
2017-Jul-20 06:58N 60°52' E 007°08'0 0.0
2017-Jul-20 06:28N 60°52' E 007°08'0 0.0
2017-Jul-20 06:00N 60°52' E 007°08'0 0.0
2017-Jul-20 05:30N 60°52' E 007°08'0 0.0
2017-Jul-20 05:00N 60°52' E 007°08'0 0.0
2017-Jul-20 04:30N 60°52' E 007°08'0 0.0
2017-Jul-20 04:00N 60°52' E 007°08'4 8.0
2017-Jul-20 03:30N 60°56' E 007°10'713.2
2017-Jul-20 03:00N 61°02' E 007°02'612.3
2017-Jul-20 02:30N 61°07' E 006°55'611.8
2017-Jul-20 02:00N 61°10' E 006°45'611.8
2017-Jul-20 01:30N 61°08' E 006°34'714.1
2017-Jul-20 01:00N 61°06' E 006°19'815.0
2017-Jul-20 00:30N 61°08' E 006°04'714.8
2017-Jul-20 00:00N 61°08' E 005°49'714.9
2017-Jul-19 23:30N 61°06' E 005°35'714.4
2017-Jul-19 23:00N 61°04' E 005°20'714.1
2017-Jul-19 22:30N 61°05' E 005°06'715.2
2017-Jul-19 22:00N 61°01' E 004°52'815.3
2017-Jul-19 21:30N 60°56' E 004°41'713.9
2017-Jul-19 21:00N 60°51' E 004°31'9 4.5
2017-Jul-19 18:58N 60°44' E 004°19'817.1
2017-Jul-19 18:30N 60°45' E 004°35'713.9
2017-Jul-19 18:00N 60°43' E 004°48'816.5
2017-Jul-19 17:30N 60°35' E 004°55'816.9
2017-Jul-19 17:00N 60°27' E 005°01'612.5
2017-Jul-19 16:30N 60°23' E 005°11'4 7.6
2017-Jul-19 16:00N 60°24' E 005°18'0 0.3
2017-Jul-19 15:27N 60°24' E 005°19'0 0.0
2017-Jul-19 14:57N 60°24' E 005°19'0 0.0
2017-Jul-19 14:27N 60°24' E 005°19'0 0.0
2017-Jul-19 13:56N 60°24' E 005°19'0 0.0
2017-Jul-19 13:26N 60°24' E 005°19'0 0.0
2017-Jul-19 12:56N 60°24' E 005°19'0 0.0
2017-Jul-19 12:26N 60°24' E 005°19'0 0.0
2017-Jul-19 11:55N 60°24' E 005°19'0 0.0
2017-Jul-19 11:25N 60°24' E 005°19'0 0.0
2017-Jul-19 10:55N 60°24' E 005°19'0 0.0
2017-Jul-19 10:25N 60°24' E 005°19'0 0.0
2017-Jul-19 09:55N 60°24' E 005°19'0 0.0
2017-Jul-19 09:30N 60°24' E 005°19'0 0.0
2017-Jul-19 09:00N 60°24' E 005°19'0 0.0
2017-Jul-19 08:30N 60°24' E 005°19'0 0.0
2017-Jul-19 08:00N 60°24' E 005°19'0 0.0
2017-Jul-19 07:30N 60°24' E 005°19'0 0.0
2017-Jul-19 06:53N 60°24' E 005°19'0 0.0
2017-Jul-19 06:29N 60°24' E 005°19'0 0.0
2017-Jul-19 05:53N 60°24' E 005°19'0 0.0
2017-Jul-19 05:29N 60°24' E 005°19'0 0.4
2017-Jul-19 05:00N 60°24' E 005°18'3 6.3
2017-Jul-19 04:30N 60°23' E 005°12'5 9.4
2017-Jul-19 04:00N 60°19' E 005°12'714.4
2017-Jul-19 03:29N 60°11' E 005°11'612.1
2017-Jul-19 03:00N 60°09' E 005°01'4 7.7
2017-Jul-19 02:30N 60°07' E 004°54'4 7.6
2017-Jul-19 02:00N 60°04' E 004°50'4 7.9
2017-Jul-19 01:30N 59°60' E 004°49'4 8.4
2017-Jul-19 01:00N 59°55' E 004°48'5 9.9
2017-Jul-19 00:29N 59°51' E 004°48'5 9.6
2017-Jul-19 00:00N 59°46' E 004°47'5 9.3
2017-Jul-18 23:30N 59°41' E 004°46'4 8.3
2017-Jul-18 23:00N 59°37' E 004°45'4 7.8
2017-Jul-18 22:30N 59°33' E 004°44'4 7.9
2017-Jul-18 22:00N 59°29' E 004°44'18 7.5
2017-Jul-18 19:32N 59°11' E 004°48'0 8.1
2017-Jul-18 19:29N 59°11' E 004°49'4 8.1
2017-Jul-18 19:00N 59°08' E 004°55'4 8.3
2017-Jul-18 18:30N 59°06' E 005°01'4 8.0
2017-Jul-18 18:00N 59°04' E 005°08'4 7.7
2017-Jul-18 17:30N 59°04' E 005°16'5 9.3
2017-Jul-18 17:00N 59°06' E 005°24'611.5
2017-Jul-18 16:30N 59°04' E 005°34'713.2
2017-Jul-18 16:00N 58°59' E 005°43'1 1.4
2017-Jul-18 15:28N 58°59' E 005°43'0 0.0
2017-Jul-18 15:01N 58°59' E 005°43'0 0.0
2017-Jul-18 13:57N 58°59' E 005°43'0 0.0
2017-Jul-18 13:30N 58°59' E 005°43'0 0.0
2017-Jul-18 13:00N 58°59' E 005°43'0 0.0
2017-Jul-18 12:29N 58°59' E 005°43'0 0.0
2017-Jul-18 11:59N 58°59' E 005°43'0 0.0
2017-Jul-18 11:29N 58°59' E 005°43'0 0.0
2017-Jul-18 10:59N 58°59' E 005°43'0 0.0
2017-Jul-18 10:29N 58°59' E 005°43'0 0.0
2017-Jul-18 09:58N 58°59' E 005°43'0 0.0
2017-Jul-18 09:28N 58°59' E 005°43'0 0.0
2017-Jul-18 08:58N 58°59' E 005°43'0 0.0
2017-Jul-18 08:28N 58°59' E 005°43'0 0.0
2017-Jul-18 08:01N 58°59' E 005°43'0 0.0
2017-Jul-18 07:30N 58°59' E 005°43'0 0.0
2017-Jul-18 07:00N 58°59' E 005°43'0 0.0
2017-Jul-18 06:30N 58°59' E 005°43'1 1.2
2017-Jul-18 06:00N 58°59' E 005°43'5 9.9
2017-Jul-18 05:30N 59°02' E 005°36'510.8
2017-Jul-18 05:00N 58°57' E 005°33'714.1
2017-Jul-18 04:31N 58°51' E 005°29'713.3
2017-Jul-18 04:00N 58°45' E 005°23'815.6
2017-Jul-18 03:30N 58°37' E 005°22'917.4
2017-Jul-18 03:00N 58°29' E 005°31'918.4
2017-Jul-18 02:30N 58°22' E 005°42'1019.1
2017-Jul-18 02:00N 58°16' E 005°55'816.9
2017-Jul-18 01:30N 58°10' E 006°07'816.3
2017-Jul-18 01:00N 58°05' E 006°19'916.9
2017-Jul-18 00:29N 57°59' E 006°31'816.8
2017-Jul-18 00:00N 57°56' E 006°45'816.6
2017-Jul-17 23:30N 57°53' E 007°00'917.1
2017-Jul-17 23:00N 57°52' E 007°16'917.4
2017-Jul-17 22:30N 57°52' E 007°32'1019.4
2017-Jul-17 22:00N 57°55' E 007°50'1019.7
2017-Jul-17 21:30N 57°58' E 008°07'1019.8
2017-Jul-17 21:00N 58°03' E 008°24'1020.2
2017-Jul-17 20:30N 58°09' E 008°38'1020.3
2017-Jul-17 20:00N 58°16' E 008°53'1019.9
2017-Jul-17 19:30N 58°22' E 009°08'1020.2
2017-Jul-17 19:00N 58°29' E 009°23'1019.7
2017-Jul-17 18:30N 58°35' E 009°37'1019.7
2017-Jul-17 18:00N 58°41' E 009°52'1019.7
2017-Jul-17 17:30N 58°47' E 010°07'1019.7
2017-Jul-17 17:00N 58°53' E 010°22'918.7
2017-Jul-17 16:30N 59°00' E 010°34'713.7
2017-Jul-17 16:01N 59°07' E 010°34'918.2
2017-Jul-17 15:31N 59°16' E 010°37'1019.4
2017-Jul-17 15:01N 59°25' E 010°33'918.8
2017-Jul-17 14:30N 59°35' E 010°38'815.7
2017-Jul-17 14:00N 59°42' E 010°35'715.1
2017-Jul-17 13:30N 59°50' E 010°35'611.9
2017-Jul-17 13:00N 59°54' E 010°43'0 0.5
2017-Jul-17 12:30N 59°54' E 010°43'0 0.0
2017-Jul-17 12:00N 59°54' E 010°43'0 0.0
2017-Jul-17 11:30N 59°54' E 010°43'0 0.0
2017-Jul-17 11:00N 59°54' E 010°43'0 0.0
2017-Jul-17 10:30N 59°54' E 010°43'0 0.0
2017-Jul-17 09:59N 59°54' E 010°43'0 0.0
2017-Jul-17 09:29N 59°54' E 010°43'0 0.0
2017-Jul-17 08:59N 59°54' E 010°43'0 0.0
2017-Jul-17 08:29N 59°54' E 010°43'0 0.0
2017-Jul-17 07:58N 59°54' E 010°43'0 0.0
2017-Jul-17 07:28N 59°54' E 010°43'0 0.0
2017-Jul-17 06:58N 59°54' E 010°43'0 0.0
2017-Jul-17 06:28N 59°54' E 010°43'0 0.0
2017-Jul-17 06:01N 59°54' E 010°43'0 0.0
2017-Jul-17 05:27N 59°54' E 010°43'0 0.0
2017-Jul-17 05:00N 59°54' E 010°43'0 0.0
2017-Jul-17 04:30N 59°54' E 010°43'0 0.0
2017-Jul-17 04:00N 59°54' E 010°43'0 0.0
2017-Jul-17 03:29N 59°54' E 010°43'0 0.0
2017-Jul-17 02:59N 59°54' E 010°43'0 0.0
2017-Jul-17 02:29N 59°54' E 010°43'0 0.0
2017-Jul-17 01:59N 59°54' E 010°43'0 0.0
2017-Jul-17 01:29N 59°54' E 010°43'0 0.0
2017-Jul-17 00:58N 59°54' E 010°43'0 0.0
2017-Jul-17 00:25N 59°54' E 010°43'0 0.0
2017-Jul-16 23:58N 59°54' E 010°43'0 0.0
2017-Jul-16 23:28N 59°54' E 010°43'0 0.0
2017-Jul-16 22:57N 59°54' E 010°43'0 0.0
2017-Jul-16 22:30N 59°54' E 010°43'0 0.0
2017-Jul-16 22:00N 59°54' E 010°43'0 0.0
2017-Jul-16 21:30N 59°54' E 010°43'0 0.0
2017-Jul-16 21:00N 59°54' E 010°43'0 0.0
2017-Jul-16 20:29N 59°54' E 010°43'0 0.0
2017-Jul-16 19:59N 59°54' E 010°43'0 0.0
2017-Jul-16 19:29N 59°54' E 010°43'0 0.0
2017-Jul-16 18:59N 59°54' E 010°43'0 0.0
2017-Jul-16 18:29N 59°54' E 010°43'0 0.0
2017-Jul-16 17:58N 59°54' E 010°43'0 0.0
2017-Jul-16 17:28N 59°54' E 010°43'0 0.0
2017-Jul-16 16:58N 59°54' E 010°43'0 0.0
2017-Jul-16 16:28N 59°54' E 010°43'0 0.0
2017-Jul-16 16:00N 59°54' E 010°43'0 0.0
2017-Jul-16 15:30N 59°54' E 010°43'0 0.0
2017-Jul-16 15:00N 59°54' E 010°43'0 0.0
2017-Jul-16 14:30N 59°54' E 010°43'0 0.0
2017-Jul-16 14:00N 59°54' E 010°43'0 0.0
2017-Jul-16 13:29N 59°54' E 010°43'0 0.0
2017-Jul-16 12:59N 59°54' E 010°43'0 0.0
2017-Jul-16 12:29N 59°54' E 010°43'0 0.0
2017-Jul-16 11:59N 59°54' E 010°43'0 0.0
2017-Jul-16 11:29N 59°54' E 010°43'0 0.0
2017-Jul-16 10:58N 59°54' E 010°43'0 0.0
2017-Jul-16 10:28N 59°54' E 010°43'0 0.0
2017-Jul-16 09:58N 59°54' E 010°43'0 0.0
2017-Jul-16 09:25N 59°54' E 010°43'0 0.0
2017-Jul-16 09:01N 59°54' E 010°43'0 0.0
2017-Jul-16 08:30N 59°54' E 010°43'0 0.0
2017-Jul-16 08:00N 59°54' E 010°43'0 0.0
2017-Jul-16 07:30N 59°54' E 010°43'0 0.0
2017-Jul-16 07:00N 59°54' E 010°43'0 0.0
2017-Jul-16 06:29N 59°54' E 010°43'0 0.0
2017-Jul-16 05:59N 59°54' E 010°43'0 0.0
2017-Jul-16 05:29N 59°54' E 010°43'0 0.0
2017-Jul-16 04:59N 59°54' E 010°43'0 0.0
2017-Jul-16 04:29N 59°54' E 010°43'0 0.0
2017-Jul-16 03:58N 59°54' E 010°43'0 0.0
2017-Jul-16 03:28N 59°54' E 010°43'0 0.0
2017-Jul-16 02:58N 59°54' E 010°43'0 0.0
2017-Jul-16 02:28N 59°54' E 010°43'0 0.0
2017-Jul-16 02:00N 59°54' E 010°43'0 0.0
2017-Jul-16 01:30N 59°54' E 010°43'0 0.0
2017-Jul-16 01:00N 59°54' E 010°43'0 0.0
2017-Jul-16 00:30N 59°54' E 010°43'0 0.0
2017-Jul-16 00:00N 59°54' E 010°43'0 0.0
2017-Jul-15 23:29N 59°54' E 010°43'0 0.0
2017-Jul-15 22:59N 59°54' E 010°43'0 0.0
2017-Jul-15 22:29N 59°54' E 010°43'0 0.0
2017-Jul-15 21:59N 59°54' E 010°43'0 0.0
2017-Jul-15 21:28N 59°54' E 010°43'0 0.0
2017-Jul-15 20:58N 59°54' E 010°43'0 0.0
2017-Jul-15 20:28N 59°54' E 010°43'0 0.0
2017-Jul-15 19:58N 59°54' E 010°43'0 0.0
2017-Jul-15 19:28N 59°54' E 010°43'0 0.0
2017-Jul-15 19:00N 59°54' E 010°43'0 0.0
2017-Jul-15 18:30N 59°54' E 010°43'0 0.0
2017-Jul-15 18:00N 59°54' E 010°43'0 0.0
2017-Jul-15 17:30N 59°54' E 010°43'0 0.0
2017-Jul-15 17:00N 59°54' E 010°43'0 0.0
2017-Jul-15 16:29N 59°54' E 010°43'0 0.0
2017-Jul-15 15:59N 59°54' E 010°43'0 0.0
2017-Jul-15 15:29N 59°54' E 010°43'0 0.0
2017-Jul-15 14:59N 59°54' E 010°43'0 0.0
2017-Jul-15 13:58N 59°54' E 010°43'0 0.0
2017-Jul-15 13:28N 59°54' E 010°43'0 0.0
2017-Jul-15 12:58N 59°54' E 010°43'0 0.0
2017-Jul-15 12:28N 59°54' E 010°43'0 0.0
2017-Jul-15 12:00N 59°54' E 010°43'0 0.0
2017-Jul-15 11:30N 59°54' E 010°43'0 0.0
2017-Jul-15 11:00N 59°54' E 010°43'0 0.0
2017-Jul-15 10:30N 59°54' E 010°43'0 0.0
2017-Jul-15 10:00N 59°54' E 010°43'0 0.0
2017-Jul-15 09:29N 59°54' E 010°43'0 0.0
2017-Jul-15 08:59N 59°54' E 010°43'0 0.0
2017-Jul-15 08:29N 59°54' E 010°43'0 0.0
2017-Jul-15 07:59N 59°54' E 010°43'0 0.0
2017-Jul-15 07:28N 59°54' E 010°43'0 0.0
2017-Jul-15 06:58N 59°54' E 010°43'0 0.0
2017-Jul-15 06:28N 59°54' E 010°43'0 0.0
2017-Jul-15 05:58N 59°54' E 010°43'0 0.0
2017-Jul-15 05:30N 59°54' E 010°43'0 0.6
2017-Jul-15 05:00N 59°54' E 010°43'2 3.9
2017-Jul-15 04:30N 59°53' E 010°40'3 6.8
2017-Jul-15 04:00N 59°50' E 010°36'713.4
2017-Jul-15 03:30N 59°44' E 010°35'612.5
2017-Jul-15 03:00N 59°37' E 010°38'917.2
2017-Jul-15 02:30N 59°29' E 010°35'917.6
2017-Jul-15 02:00N 59°20' E 010°36'917.8
2017-Jul-15 01:30N 59°11' E 010°39'714.7
2017-Jul-15 01:00N 59°04' E 010°35'612.2
2017-Jul-15 00:30N 58°58' E 010°35'713.5
2017-Jul-15 00:00N 58°52' E 010°35'713.5
2017-Jul-14 23:30N 58°45' E 010°34'714.0
2017-Jul-14 23:01N 58°38' E 010°34'913.9
2017-Jul-14 22:24N 58°29' E 010°36'513.9
2017-Jul-14 22:00N 58°24' E 010°40'714.0
2017-Jul-14 21:30N 58°18' E 010°44'714.2
2017-Jul-14 21:00N 58°11' E 010°49'714.2
2017-Jul-14 20:30N 58°04' E 010°53'714.3
2017-Jul-14 20:00N 57°57' E 010°57'714.3
2017-Jul-14 19:30N 57°51' E 011°02'815.0
2017-Jul-14 19:00N 57°44' E 011°06'917.7
2017-Jul-14 18:31N 57°35' E 011°12'917.9
2017-Jul-14 18:00N 57°29' E 011°24'918.0
2017-Jul-14 17:31N 57°21' E 011°31'917.9
2017-Jul-14 17:00N 57°13' E 011°38'5517.1
2017-Jul-14 13:48N 56°22' E 012°13'516.9
2017-Jul-14 13:30N 56°18' E 012°20'816.6
2017-Jul-14 13:01N 56°12' E 012°29'815.8
2017-Jul-14 12:30N 56°05' E 012°37'815.6
2017-Jul-14 12:00N 55°58' E 012°42'815.1
2017-Jul-14 11:30N 55°50' E 012°43'714.2
2017-Jul-14 11:00N 55°43' E 012°41'611.5
2017-Jul-14 10:31N 55°38' E 012°42'4 8.3
2017-Jul-14 10:01N 55°34' E 012°42'5 9.2
2017-Jul-14 09:30N 55°29' E 012°42'612.5
2017-Jul-14 09:00N 55°23' E 012°41'611.1
2017-Jul-14 08:30N 55°18' E 012°45'613.2
2017-Jul-14 08:00N 55°16' E 012°56'  
Track history (hours):
 
Tides and Currents Weather Stations Pressure Air Temp Water Temp Dewpoint Dewpoint Depression Visibility Wind Speed Wind Dir Waves Ship Positions

Crystal Symphony

Operator: Crystal Cruises

Last reported at 2017-Jul-24 08:29 UTC. Time now 2017-Jul-24 08:29 UTC.
Position N 69°41' E 018°60'.

Length 238 m; draft 7.7 m.

Type: Ship. MMSI: 309168000.

Date/timePositionNaut miles runAvg speedWind from/ knotsBaromVisibWave heightAir tempDewpointWater temp
2017-Jul-24 08:29N 69°41' E 018°60'0 0.0
2017-Jul-24 07:59N 69°41' E 018°60'0 0.0
2017-Jul-24 07:29N 69°41' E 018°60'0 0.0
2017-Jul-24 06:59N 69°41' E 018°60'0 0.0
2017-Jul-24 06:25N 69°41' E 018°60'0 0.0
2017-Jul-24 05:58N 69°41' E 018°60'0 0.2
2017-Jul-24 05:29N 69°41' E 018°60'1 3.0
2017-Jul-24 05:00N 69°42' E 019°03'3 6.8
2017-Jul-24 04:30N 69°45' E 019°04'5 9.3
2017-Jul-24 04:00N 69°50' E 018°60'611.5
2017-Jul-24 03:27N 69°54' E 018°46'4 9.2
2017-Jul-24 03:00N 69°50' E 018°38'815.5
2017-Jul-24 02:30N 69°48' E 018°18'713.5
2017-Jul-24 02:00N 69°45' E 018°00'612.0
2017-Jul-24 01:30N 69°43' E 017°43'713.6
2017-Jul-24 01:00N 69°41' E 017°25'714.4
2017-Jul-24 00:30N 69°38' E 017°06'917.2
2017-Jul-24 00:00N 69°34' E 016°44'917.1
2017-Jul-23 23:29N 69°31' E 016°21'816.7
2017-Jul-23 23:00N 69°27' E 015°60'815.7
2017-Jul-23 22:30N 69°24' E 015°40'815.9
2017-Jul-23 22:00N 69°20' E 015°19'815.9
2017-Jul-23 21:30N 69°17' E 014°60'815.7
2017-Jul-23 21:00N 69°13' E 014°39'815.9
2017-Jul-23 20:30N 69°10' E 014°19'816.2
2017-Jul-23 20:00N 69°04' E 014°04'815.6
2017-Jul-23 19:30N 68°58' E 013°51'816.2
2017-Jul-23 18:59N 68°51' E 013°37'816.5
2017-Jul-23 18:30N 68°44' E 013°24'917.2
2017-Jul-23 18:00N 68°37' E 013°10'917.2
2017-Jul-23 17:29N 68°30' E 012°56'817.1
2017-Jul-23 17:00N 68°24' E 012°43'816.4
2017-Jul-23 16:30N 68°17' E 012°30'713.9
2017-Jul-23 16:00N 68°11' E 012°19'27413.8
2017-Jul-22 20:12N 63°58' E 008°04'314.6
2017-Jul-22 20:00N 63°55' E 008°01'714.2
2017-Jul-22 19:30N 63°49' E 007°54'713.9
2017-Jul-22 19:00N 63°43' E 007°46'714.1
2017-Jul-22 18:30N 63°37' E 007°39'917.9
2017-Jul-22 18:00N 63°29' E 007°29'917.6
2017-Jul-22 17:30N 63°20' E 007°28'917.6
2017-Jul-22 17:00N 63°14' E 007°42'5 9.1
2017-Jul-22 16:30N 63°09' E 007°43'3 5.8
2017-Jul-22 16:01N 63°07' E 007°44'0 0.7
2017-Jul-22 15:30N 63°06' E 007°44'0 0.0
2017-Jul-22 15:00N 63°06' E 007°44'0 0.0
2017-Jul-22 13:59N 63°06' E 007°44'0 0.0
2017-Jul-22 13:29N 63°06' E 007°44'0 0.0
2017-Jul-22 12:59N 63°06' E 007°44'0 0.0
2017-Jul-22 12:29N 63°06' E 007°44'0 0.0
2017-Jul-22 11:58N 63°06' E 007°44'0 0.0
2017-Jul-22 11:28N 63°06' E 007°44'0 0.0
2017-Jul-22 10:58N 63°06' E 007°44'0 0.0
2017-Jul-22 10:28N 63°06' E 007°44'0 0.0
2017-Jul-22 10:00N 63°06' E 007°44'0 0.0
2017-Jul-22 09:30N 63°06' E 007°44'0 0.0
2017-Jul-22 09:00N 63°06' E 007°44'0 0.0
2017-Jul-22 08:30N 63°06' E 007°44'0 0.0
2017-Jul-22 08:00N 63°06' E 007°44'0 0.0
2017-Jul-22 07:29N 63°06' E 007°44'0 0.0
2017-Jul-22 06:59N 63°06' E 007°44'0 0.0
2017-Jul-22 06:29N 63°06' E 007°44'0 0.0
2017-Jul-22 05:59N 63°06' E 007°44'0 0.0
2017-Jul-22 05:29N 63°06' E 007°44'0 0.0
2017-Jul-22 04:58N 63°06' E 007°44'0 0.6
2017-Jul-22 04:31N 63°07' E 007°44'2 4.7
2017-Jul-22 04:00N 63°07' E 007°39'917.1
2017-Jul-22 03:30N 63°04' E 007°22'611.0
2017-Jul-22 03:00N 63°03' E 007°10'4 8.5
2017-Jul-22 02:30N 63°01' E 007°02'5 9.3
2017-Jul-22 02:00N 62°59' E 006°53'5 9.5
2017-Jul-22 01:30N 62°59' E 006°42'5 9.6
2017-Jul-22 00:59N 62°58' E 006°31'5 9.7
2017-Jul-22 00:30N 62°57' E 006°22'5 9.6
2017-Jul-22 00:00N 62°55' E 006°12'5 9.3
2017-Jul-21 23:30N 62°52' E 006°04'5 9.2
2017-Jul-21 23:00N 62°48' E 005°57'5 9.1
2017-Jul-21 22:30N 62°45' E 005°51'4 9.1
2017-Jul-21 22:00N 62°41' E 005°45'4 8.7
2017-Jul-21 21:30N 62°37' E 005°40'5 9.3
2017-Jul-21 21:00N 62°33' E 005°41'5 9.3
2017-Jul-21 20:30N 62°29' E 005°47'5 9.8
2017-Jul-21 20:00N 62°27' E 005°56'5 9.4
2017-Jul-21 19:30N 62°24' E 006°04'714.0
2017-Jul-21 19:00N 62°24' E 006°19'917.2
2017-Jul-21 18:30N 62°27' E 006°37'816.0
2017-Jul-21 18:00N 62°26' E 006°54'815.9
2017-Jul-21 17:30N 62°18' E 006°59'815.9
2017-Jul-21 17:00N 62°10' E 007°02'510.0
2017-Jul-21 16:30N 62°06' E 007°02'5 9.1
2017-Jul-21 16:00N 62°06' E 007°12'0 0.3
2017-Jul-21 15:28N 62°06' E 007°12'0 0.0
2017-Jul-21 14:58N 62°06' E 007°12'0 0.0
2017-Jul-21 14:28N 62°06' E 007°12'0 0.0
2017-Jul-21 11:50N 62°06' E 007°12'0 0.0
2017-Jul-21 11:30N 62°06' E 007°12'0 0.0
2017-Jul-21 11:00N 62°06' E 007°12'0 0.0
2017-Jul-21 10:29N 62°06' E 007°12'0 0.0
2017-Jul-21 09:59N 62°06' E 007°12'0 0.0
2017-Jul-21 09:29N 62°06' E 007°12'0 0.0
2017-Jul-21 08:59N 62°06' E 007°12'0 0.0
2017-Jul-21 08:29N 62°06' E 007°12'0 0.2
2017-Jul-21 08:00N 62°06' E 007°12'3 6.4
2017-Jul-21 07:30N 62°06' E 007°05'4 1.8
2017-Jul-21 05:12N 62°08' E 006°57'419.1
2017-Jul-21 05:00N 62°11' E 007°02'917.9
2017-Jul-21 04:30N 62°20' E 006°57'816.2
2017-Jul-21 04:00N 62°27' E 006°49'817.0
2017-Jul-21 03:30N 62°25' E 006°31'918.3
2017-Jul-21 03:00N 62°23' E 006°12'917.6
2017-Jul-21 02:30N 62°27' E 005°55'816.7
2017-Jul-21 02:00N 62°31' E 005°39'816.3
2017-Jul-21 01:30N 62°29' E 005°22'917.2
2017-Jul-21 01:00N 62°24' E 005°07'917.2
2017-Jul-21 00:30N 62°17' E 004°56'917.2
2017-Jul-21 00:00N 62°10' E 004°46'917.2
2017-Jul-20 23:30N 62°03' E 004°36'817.1
2017-Jul-20 23:00N 61°55' E 004°30'917.0
2017-Jul-20 22:30N 61°47' E 004°25'1017.1
2017-Jul-20 21:54N 61°36' E 004°21'717.3
2017-Jul-20 21:30N 61°30' E 004°22'816.8
2017-Jul-20 21:00N 61°21' E 004°23'815.5
2017-Jul-20 20:30N 61°15' E 004°32'917.1
2017-Jul-20 20:00N 61°14' E 004°50'814.4
2017-Jul-20 19:28N 61°10' E 005°03'714.1
2017-Jul-20 18:59N 61°06' E 005°14'816.2
2017-Jul-20 18:30N 61°05' E 005°30'918.9
2017-Jul-20 18:00N 61°08' E 005°48'1019.6
2017-Jul-20 17:30N 61°08' E 006°08'1019.7
2017-Jul-20 17:00N 61°06' E 006°28'816.9
2017-Jul-20 16:30N 61°10' E 006°44'22 3.1
2017-Jul-20 09:24N 60°52' E 007°08'0 0.1
2017-Jul-20 08:59N 60°52' E 007°08'0 0.0
2017-Jul-20 08:28N 60°52' E 007°08'0 0.0
2017-Jul-20 07:58N 60°52' E 007°08'0 0.0
2017-Jul-20 07:28N 60°52' E 007°08'0 0.0
2017-Jul-20 06:58N 60°52' E 007°08'0 0.0
2017-Jul-20 06:28N 60°52' E 007°08'0 0.0
2017-Jul-20 06:00N 60°52' E 007°08'0 0.0
2017-Jul-20 05:30N 60°52' E 007°08'0 0.0
2017-Jul-20 05:00N 60°52' E 007°08'0 0.0
2017-Jul-20 04:30N 60°52' E 007°08'0 0.0
2017-Jul-20 04:00N 60°52' E 007°08'4 8.0
2017-Jul-20 03:30N 60°56' E 007°10'713.2
2017-Jul-20 03:00N 61°02' E 007°02'612.3
2017-Jul-20 02:30N 61°07' E 006°55'611.8
2017-Jul-20 02:00N 61°10' E 006°45'611.8
2017-Jul-20 01:30N 61°08' E 006°34'714.1
2017-Jul-20 01:00N 61°06' E 006°19'815.0
2017-Jul-20 00:30N 61°08' E 006°04'714.8
2017-Jul-20 00:00N 61°08' E 005°49'714.9
2017-Jul-19 23:30N 61°06' E 005°35'714.4
2017-Jul-19 23:00N 61°04' E 005°20'714.1
2017-Jul-19 22:30N 61°05' E 005°06'715.2
2017-Jul-19 22:00N 61°01' E 004°52'815.3
2017-Jul-19 21:30N 60°56' E 004°41'713.9
2017-Jul-19 21:00N 60°51' E 004°31'9 4.5
2017-Jul-19 18:58N 60°44' E 004°19'817.1
2017-Jul-19 18:30N 60°45' E 004°35'713.9
2017-Jul-19 18:00N 60°43' E 004°48'816.5
2017-Jul-19 17:30N 60°35' E 004°55'816.9
2017-Jul-19 17:00N 60°27' E 005°01'612.5
2017-Jul-19 16:30N 60°23' E 005°11'4 7.6
2017-Jul-19 16:00N 60°24' E 005°18'0 0.3
2017-Jul-19 15:27N 60°24' E 005°19'0 0.0
2017-Jul-19 14:57N 60°24' E 005°19'0 0.0
2017-Jul-19 14:27N 60°24' E 005°19'0 0.0
2017-Jul-19 13:56N 60°24' E 005°19'0 0.0
2017-Jul-19 13:26N 60°24' E 005°19'0 0.0
2017-Jul-19 12:56N 60°24' E 005°19'0 0.0
2017-Jul-19 12:26N 60°24' E 005°19'0 0.0
2017-Jul-19 11:55N 60°24' E 005°19'0 0.0
2017-Jul-19 11:25N 60°24' E 005°19'0 0.0
2017-Jul-19 10:55N 60°24' E 005°19'0 0.0
2017-Jul-19 10:25N 60°24' E 005°19'0 0.0
2017-Jul-19 09:55N 60°24' E 005°19'0 0.0
2017-Jul-19 09:30N 60°24' E 005°19'0 0.0
2017-Jul-19 09:00N 60°24' E 005°19'0 0.0
2017-Jul-19 08:30N 60°24' E 005°19'0 0.0
2017-Jul-19 08:00N 60°24' E 005°19'0 0.0
2017-Jul-19 07:30N 60°24' E 005°19'0 0.0
2017-Jul-19 06:53N 60°24' E 005°19'0 0.0
2017-Jul-19 06:29N 60°24' E 005°19'0 0.0
2017-Jul-19 05:53N 60°24' E 005°19'0 0.0
2017-Jul-19 05:29N 60°24' E 005°19'0 0.4
2017-Jul-19 05:00N 60°24' E 005°18'3 6.3
2017-Jul-19 04:30N 60°23' E 005°12'5 9.4
2017-Jul-19 04:00N 60°19' E 005°12'714.4
2017-Jul-19 03:29N 60°11' E 005°11'612.1
2017-Jul-19 03:00N 60°09' E 005°01'4 7.7
2017-Jul-19 02:30N 60°07' E 004°54'4 7.6
2017-Jul-19 02:00N 60°04' E 004°50'4 7.9
2017-Jul-19 01:30N 59°60' E 004°49'4 8.4
2017-Jul-19 01:00N 59°55' E 004°48'5 9.9
2017-Jul-19 00:29N 59°51' E 004°48'5 9.6
2017-Jul-19 00:00N 59°46' E 004°47'5 9.3
2017-Jul-18 23:30N 59°41' E 004°46'4 8.3
2017-Jul-18 23:00N 59°37' E 004°45'4 7.8
2017-Jul-18 22:30N 59°33' E 004°44'4 7.9
2017-Jul-18 22:00N 59°29' E 004°44'18 7.5
2017-Jul-18 19:32N 59°11' E 004°48'0 8.1
2017-Jul-18 19:29N 59°11' E 004°49'4 8.1
2017-Jul-18 19:00N 59°08' E 004°55'4 8.3
2017-Jul-18 18:30N 59°06' E 005°01'4 8.0
2017-Jul-18 18:00N 59°04' E 005°08'4 7.7
2017-Jul-18 17:30N 59°04' E 005°16'5 9.3
2017-Jul-18 17:00N 59°06' E 005°24'611.5
2017-Jul-18 16:30N 59°04' E 005°34'713.2
2017-Jul-18 16:00N 58°59' E 005°43'1 1.4
2017-Jul-18 15:28N 58°59' E 005°43'0 0.0
2017-Jul-18 15:01N 58°59' E 005°43'0 0.0
2017-Jul-18 13:57N 58°59' E 005°43'0 0.0
2017-Jul-18 13:30N 58°59' E 005°43'0 0.0
2017-Jul-18 13:00N 58°59' E 005°43'0 0.0
2017-Jul-18 12:29N 58°59' E 005°43'0 0.0
2017-Jul-18 11:59N 58°59' E 005°43'0 0.0
2017-Jul-18 11:29N 58°59' E 005°43'0 0.0
2017-Jul-18 10:59N 58°59' E 005°43'0 0.0
2017-Jul-18 10:29N 58°59' E 005°43'0 0.0
2017-Jul-18 09:58N 58°59' E 005°43'0 0.0
2017-Jul-18 09:28N 58°59' E 005°43'0 0.0
2017-Jul-18 08:58N 58°59' E 005°43'0 0.0
2017-Jul-18 08:28N 58°59' E 005°43'0 0.0
2017-Jul-18 08:01N 58°59' E 005°43'0 0.0
2017-Jul-18 07:30N 58°59' E 005°43'0 0.0
2017-Jul-18 07:00N 58°59' E 005°43'0 0.0
2017-Jul-18 06:30N 58°59' E 005°43'1 1.2
2017-Jul-18 06:00N 58°59' E 005°43'5 9.9
2017-Jul-18 05:30N 59°02' E 005°36'510.8
2017-Jul-18 05:00N 58°57' E 005°33'714.1
2017-Jul-18 04:31N 58°51' E 005°29'713.3
2017-Jul-18 04:00N 58°45' E 005°23'815.6
2017-Jul-18 03:30N 58°37' E 005°22'917.4
2017-Jul-18 03:00N 58°29' E 005°31'918.4
2017-Jul-18 02:30N 58°22' E 005°42'1019.1
2017-Jul-18 02:00N 58°16' E 005°55'816.9
2017-Jul-18 01:30N 58°10' E 006°07'816.3
2017-Jul-18 01:00N 58°05' E 006°19'916.9
2017-Jul-18 00:29N 57°59' E 006°31'816.8
2017-Jul-18 00:00N 57°56' E 006°45'816.6
2017-Jul-17 23:30N 57°53' E 007°00'917.1
2017-Jul-17 23:00N 57°52' E 007°16'917.4
2017-Jul-17 22:30N 57°52' E 007°32'1019.4
2017-Jul-17 22:00N 57°55' E 007°50'1019.7
2017-Jul-17 21:30N 57°58' E 008°07'1019.8
2017-Jul-17 21:00N 58°03' E 008°24'1020.2
2017-Jul-17 20:30N 58°09' E 008°38'1020.3
2017-Jul-17 20:00N 58°16' E 008°53'1019.9
2017-Jul-17 19:30N 58°22' E 009°08'1020.2
2017-Jul-17 19:00N 58°29' E 009°23'1019.7
2017-Jul-17 18:30N 58°35' E 009°37'1019.7
2017-Jul-17 18:00N 58°41' E 009°52'1019.7
2017-Jul-17 17:30N 58°47' E 010°07'1019.7
2017-Jul-17 17:00N 58°53' E 010°22'918.7
2017-Jul-17 16:30N 59°00' E 010°34'713.7
2017-Jul-17 16:01N 59°07' E 010°34'918.2
2017-Jul-17 15:31N 59°16' E 010°37'1019.4
2017-Jul-17 15:01N 59°25' E 010°33'918.8
2017-Jul-17 14:30N 59°35' E 010°38'815.7
2017-Jul-17 14:00N 59°42' E 010°35'715.1
2017-Jul-17 13:30N 59°50' E 010°35'611.9
2017-Jul-17 13:00N 59°54' E 010°43'0 0.5
2017-Jul-17 12:30N 59°54' E 010°43'0 0.0
2017-Jul-17 12:00N 59°54' E 010°43'0 0.0
2017-Jul-17 11:30N 59°54' E 010°43'0 0.0
2017-Jul-17 11:00N 59°54' E 010°43'0 0.0
2017-Jul-17 10:30N 59°54' E 010°43'0 0.0
2017-Jul-17 09:59N 59°54' E 010°43'0 0.0
2017-Jul-17 09:29N 59°54' E 010°43'0 0.0
2017-Jul-17 08:59N 59°54' E 010°43'0 0.0
2017-Jul-17 08:29N 59°54' E 010°43'0 0.0
2017-Jul-17 07:58N 59°54' E 010°43'0 0.0
2017-Jul-17 07:28N 59°54' E 010°43'0 0.0
2017-Jul-17 06:58N 59°54' E 010°43'0 0.0
2017-Jul-17 06:28N 59°54' E 010°43'0 0.0
2017-Jul-17 06:01N 59°54' E 010°43'0 0.0
2017-Jul-17 05:27N 59°54' E 010°43'0 0.0
2017-Jul-17 05:00N 59°54' E 010°43'0 0.0
2017-Jul-17 04:30N 59°54' E 010°43'0 0.0
2017-Jul-17 04:00N 59°54' E 010°43'0 0.0
2017-Jul-17 03:29N 59°54' E 010°43'0 0.0
2017-Jul-17 02:59N 59°54' E 010°43'0 0.0
2017-Jul-17 02:29N 59°54' E 010°43'0 0.0
2017-Jul-17 01:59N 59°54' E 010°43'0 0.0
2017-Jul-17 01:29N 59°54' E 010°43'0 0.0
2017-Jul-17 00:58N 59°54' E 010°43'0 0.0
2017-Jul-17 00:25N 59°54' E 010°43'0 0.0
2017-Jul-16 23:58N 59°54' E 010°43'0 0.0
2017-Jul-16 23:28N 59°54' E 010°43'0 0.0
2017-Jul-16 22:57N 59°54' E 010°43'0 0.0
2017-Jul-16 22:30N 59°54' E 010°43'0 0.0
2017-Jul-16 22:00N 59°54' E 010°43'0 0.0
2017-Jul-16 21:30N 59°54' E 010°43'0 0.0
2017-Jul-16 21:00N 59°54' E 010°43'0 0.0
2017-Jul-16 20:29N 59°54' E 010°43'0 0.0
2017-Jul-16 19:59N 59°54' E 010°43'0 0.0
2017-Jul-16 19:29N 59°54' E 010°43'0 0.0
2017-Jul-16 18:59N 59°54' E 010°43'0 0.0
2017-Jul-16 18:29N 59°54' E 010°43'0 0.0
2017-Jul-16 17:58N 59°54' E 010°43'0 0.0
2017-Jul-16 17:28N 59°54' E 010°43'0 0.0
2017-Jul-16 16:58N 59°54' E 010°43'0 0.0
2017-Jul-16 16:28N 59°54' E 010°43'0 0.0
2017-Jul-16 16:00N 59°54' E 010°43'0 0.0
2017-Jul-16 15:30N 59°54' E 010°43'0 0.0
2017-Jul-16 15:00N 59°54' E 010°43'0 0.0
2017-Jul-16 14:30N 59°54' E 010°43'0 0.0
2017-Jul-16 14:00N 59°54' E 010°43'0 0.0
2017-Jul-16 13:29N 59°54' E 010°43'0 0.0
2017-Jul-16 12:59N 59°54' E 010°43'0 0.0
2017-Jul-16 12:29N 59°54' E 010°43'0 0.0
2017-Jul-16 11:59N 59°54' E 010°43'0 0.0
2017-Jul-16 11:29N 59°54' E 010°43'0 0.0
2017-Jul-16 10:58N 59°54' E 010°43'0 0.0
2017-Jul-16 10:28N 59°54' E 010°43'0 0.0
2017-Jul-16 09:58N 59°54' E 010°43'0 0.0
2017-Jul-16 09:25N 59°54' E 010°43'0 0.0
2017-Jul-16 09:01N 59°54' E 010°43'0 0.0
2017-Jul-16 08:30N 59°54' E 010°43'0 0.0
2017-Jul-16 08:00N 59°54' E 010°43'0 0.0
2017-Jul-16 07:30N 59°54' E 010°43'0 0.0
2017-Jul-16 07:00N 59°54' E 010°43'0 0.0
2017-Jul-16 06:29N 59°54' E 010°43'0 0.0
2017-Jul-16 05:59N 59°54' E 010°43'0 0.0
2017-Jul-16 05:29N 59°54' E 010°43'0 0.0
2017-Jul-16 04:59N 59°54' E 010°43'0 0.0
2017-Jul-16 04:29N 59°54' E 010°43'0 0.0
2017-Jul-16 03:58N 59°54' E 010°43'0 0.0
2017-Jul-16 03:28N 59°54' E 010°43'0 0.0
2017-Jul-16 02:58N 59°54' E 010°43'0 0.0
2017-Jul-16 02:28N 59°54' E 010°43'0 0.0
2017-Jul-16 02:00N 59°54' E 010°43'0 0.0
2017-Jul-16 01:30N 59°54' E 010°43'0 0.0
2017-Jul-16 01:00N 59°54' E 010°43'0 0.0
2017-Jul-16 00:30N 59°54' E 010°43'0 0.0
2017-Jul-16 00:00N 59°54' E 010°43'0 0.0
2017-Jul-15 23:29N 59°54' E 010°43'0 0.0
2017-Jul-15 22:59N 59°54' E 010°43'0 0.0
2017-Jul-15 22:29N 59°54' E 010°43'0 0.0
2017-Jul-15 21:59N 59°54' E 010°43'0 0.0
2017-Jul-15 21:28N 59°54' E 010°43'0 0.0
2017-Jul-15 20:58N 59°54' E 010°43'0 0.0
2017-Jul-15 20:28N 59°54' E 010°43'0 0.0
2017-Jul-15 19:58N 59°54' E 010°43'0 0.0
2017-Jul-15 19:28N 59°54' E 010°43'0 0.0
2017-Jul-15 19:00N 59°54' E 010°43'0 0.0
2017-Jul-15 18:30N 59°54' E 010°43'0 0.0
2017-Jul-15 18:00N 59°54' E 010°43'0 0.0
2017-Jul-15 17:30N 59°54' E 010°43'0 0.0
2017-Jul-15 17:00N 59°54' E 010°43'0 0.0
2017-Jul-15 16:29N 59°54' E 010°43'0 0.0
2017-Jul-15 15:59N 59°54' E 010°43'0 0.0
2017-Jul-15 15:29N 59°54' E 010°43'0 0.0
2017-Jul-15 14:59N 59°54' E 010°43'0 0.0
2017-Jul-15 13:58N 59°54' E 010°43'0 0.0
2017-Jul-15 13:28N 59°54' E 010°43'0 0.0
2017-Jul-15 12:58N 59°54' E 010°43'0 0.0
2017-Jul-15 12:28N 59°54' E 010°43'0 0.0
2017-Jul-15 12:00N 59°54' E 010°43'0 0.0
2017-Jul-15 11:30N 59°54' E 010°43'0 0.0
2017-Jul-15 11:00N 59°54' E 010°43'0 0.0
2017-Jul-15 10:30N 59°54' E 010°43'0 0.0
2017-Jul-15 10:00N 59°54' E 010°43'0 0.0
2017-Jul-15 09:29N 59°54' E 010°43'0 0.0
2017-Jul-15 08:59N 59°54' E 010°43'0 0.0
2017-Jul-15 08:29N 59°54' E 010°43'0 0.0
2017-Jul-15 07:59N 59°54' E 010°43'0 0.0
2017-Jul-15 07:28N 59°54' E 010°43'0 0.0
2017-Jul-15 06:58N 59°54' E 010°43'0 0.0
2017-Jul-15 06:28N 59°54' E 010°43'0 0.0
2017-Jul-15 05:58N 59°54' E 010°43'0 0.0
2017-Jul-15 05:30N 59°54' E 010°43'0 0.6
2017-Jul-15 05:00N 59°54' E 010°43'2 3.9
2017-Jul-15 04:30N 59°53' E 010°40'3 6.8
2017-Jul-15 04:00N 59°50' E 010°36'713.4
2017-Jul-15 03:30N 59°44' E 010°35'612.5
2017-Jul-15 03:00N 59°37' E 010°38'917.2
2017-Jul-15 02:30N 59°29' E 010°35'917.6
2017-Jul-15 02:00N 59°20' E 010°36'917.8
2017-Jul-15 01:30N 59°11' E 010°39'714.7
2017-Jul-15 01:00N 59°04' E 010°35'612.2
2017-Jul-15 00:30N 58°58' E 010°35'713.5
2017-Jul-15 00:00N 58°52' E 010°35'713.5
2017-Jul-14 23:30N 58°45' E 010°34'714.0
2017-Jul-14 23:01N 58°38' E 010°34'913.9
2017-Jul-14 22:24N 58°29' E 010°36'513.9
2017-Jul-14 22:00N 58°24' E 010°40'714.0
2017-Jul-14 21:30N 58°18' E 010°44'714.2
2017-Jul-14 21:00N 58°11' E 010°49'714.2
2017-Jul-14 20:30N 58°04' E 010°53'714.3
2017-Jul-14 20:00N 57°57' E 010°57'714.3
2017-Jul-14 19:30N 57°51' E 011°02'815.0
2017-Jul-14 19:00N 57°44' E 011°06'917.7
2017-Jul-14 18:31N 57°35' E 011°12'917.9
2017-Jul-14 18:00N 57°29' E 011°24'918.0
2017-Jul-14 17:31N 57°21' E 011°31'917.9
2017-Jul-14 17:00N 57°13' E 011°38'5517.1
2017-Jul-14 13:48N 56°22' E 012°13'516.9
2017-Jul-14 13:30N 56°18' E 012°20'816.6
2017-Jul-14 13:01N 56°12' E 012°29'815.8
2017-Jul-14 12:30N 56°05' E 012°37'815.6
2017-Jul-14 12:00N 55°58' E 012°42'815.1
2017-Jul-14 11:30N 55°50' E 012°43'714.2
2017-Jul-14 11:00N 55°43' E 012°41'611.5
2017-Jul-14 10:31N 55°38' E 012°42'4 8.3
2017-Jul-14 10:01N 55°34' E 012°42'5 9.2
2017-Jul-14 09:30N 55°29' E 012°42'612.5
2017-Jul-14 09:00N 55°23' E 012°41'611.1
2017-Jul-14 08:30N 55°18' E 012°45'613.2
2017-Jul-14 08:00N 55°16' E 012°56'  

Dump ship's entire track history